sensor_id;sensor_type;location;lat;lon;timestamp;temperature;humidity
1381;DHT22;684;48.342;10.096;2023-02-26T00:00:10;2.20;26.30
1381;DHT22;684;48.342;10.096;2023-02-26T00:02:39;2.20;26.10
1381;DHT22;684;48.342;10.096;2023-02-26T00:05:07;2.20;25.60
1381;DHT22;684;48.342;10.096;2023-02-26T00:07:34;2.20;25.60
1381;DHT22;684;48.342;10.096;2023-02-26T00:10:03;2.20;25.50
1381;DHT22;684;48.342;10.096;2023-02-26T00:12:30;2.10;25.50
1381;DHT22;684;48.342;10.096;2023-02-26T00:14:58;2.10;25.50
1381;DHT22;684;48.342;10.096;2023-02-26T00:17:33;2.10;25.50
1381;DHT22;684;48.342;10.096;2023-02-26T00:20:02;2.10;25.50
1381;DHT22;684;48.342;10.096;2023-02-26T00:22:29;2.10;25.60
1381;DHT22;684;48.342;10.096;2023-02-26T00:24:56;2.10;25.70
1381;DHT22;684;48.342;10.096;2023-02-26T00:27:25;2.10;25.50
1381;DHT22;684;48.342;10.096;2023-02-26T00:29:52;2.10;25.40
1381;DHT22;684;48.342;10.096;2023-02-26T00:32:19;2.00;24.80
1381;DHT22;684;48.342;10.096;2023-02-26T00:34:47;2.00;25.00
1381;DHT22;684;48.342;10.096;2023-02-26T00:37:26;2.00;24.40
1381;DHT22;684;48.342;10.096;2023-02-26T00:40:06;2.00;24.60
1381;DHT22;684;48.342;10.096;2023-02-26T00:42:37;1.90;24.80
1381;DHT22;684;48.342;10.096;2023-02-26T00:45:05;1.90;24.90
1381;DHT22;684;48.342;10.096;2023-02-26T00:47:38;1.90;25.30
1381;DHT22;684;48.342;10.096;2023-02-26T00:50:13;1.90;25.40
1381;DHT22;684;48.342;10.096;2023-02-26T00:52:47;1.90;25.60
1381;DHT22;684;48.342;10.096;2023-02-26T00:55:16;1.80;25.50
1381;DHT22;684;48.342;10.096;2023-02-26T00:57:44;1.80;25.50
1381;DHT22;684;48.342;10.096;2023-02-26T01:00:11;1.80;25.50
1381;DHT22;684;48.342;10.096;2023-02-26T01:02:39;1.80;25.40
1381;DHT22;684;48.342;10.096;2023-02-26T01:05:08;1.80;25.50
1381;DHT22;684;48.342;10.096;2023-02-26T01:07:39;1.80;25.40
1381;DHT22;684;48.342;10.096;2023-02-26T01:10:08;1.70;25.50
1381;DHT22;684;48.342;10.096;2023-02-26T01:12:36;1.70;25.70
1381;DHT22;684;48.342;10.096;2023-02-26T01:15:05;1.70;25.60
1381;DHT22;684;48.342;10.096;2023-02-26T01:17:36;1.60;25.60
1381;DHT22;684;48.342;10.096;2023-02-26T01:20:08;1.60;25.60
1381;DHT22;684;48.342;10.096;2023-02-26T01:22:38;1.50;25.90
1381;DHT22;684;48.342;10.096;2023-02-26T01:25:09;1.50;26.10
1381;DHT22;684;48.342;10.096;2023-02-26T01:27:36;1.50;26.10
1381;DHT22;684;48.342;10.096;2023-02-26T01:30:06;1.50;26.40
1381;DHT22;684;48.342;10.096;2023-02-26T01:32:41;1.50;26.50
1381;DHT22;684;48.342;10.096;2023-02-26T01:35:20;1.50;26.50
1381;DHT22;684;48.342;10.096;2023-02-26T01:37:54;1.50;26.60
1381;DHT22;684;48.342;10.096;2023-02-26T01:40:38;1.50;26.50
1381;DHT22;684;48.342;10.096;2023-02-26T01:43:15;1.50;26.60
1381;DHT22;684;48.342;10.096;2023-02-26T01:45:54;1.40;26.60
1381;DHT22;684;48.342;10.096;2023-02-26T01:48:33;1.40;26.70
1381;DHT22;684;48.342;10.096;2023-02-26T01:51:01;1.30;26.60
1381;DHT22;684;48.342;10.096;2023-02-26T01:53:28;1.30;26.70
1381;DHT22;684;48.342;10.096;2023-02-26T01:55:57;1.30;26.80
1381;DHT22;684;48.342;10.096;2023-02-26T01:58:28;1.30;26.90
1381;DHT22;684;48.342;10.096;2023-02-26T02:00:57;1.30;27.00
1381;DHT22;684;48.342;10.096;2023-02-26T02:03:25;1.30;27.00
1381;DHT22;684;48.342;10.096;2023-02-26T02:05:55;1.30;26.90
1381;DHT22;684;48.342;10.096;2023-02-26T02:08:23;1.30;26.80
1381;DHT22;684;48.342;10.096;2023-02-26T02:10:50;1.30;26.80
1381;DHT22;684;48.342;10.096;2023-02-26T02:13:39;1.30;26.80
1381;DHT22;684;48.342;10.096;2023-02-26T02:16:16;1.20;26.80
1381;DHT22;684;48.342;10.096;2023-02-26T02:18:51;1.30;26.80
1381;DHT22;684;48.342;10.096;2023-02-26T02:21:31;1.20;26.70
1381;DHT22;684;48.342;10.096;2023-02-26T02:24:05;1.20;26.70
1381;DHT22;684;48.342;10.096;2023-02-26T02:26:55;1.20;26.60
1381;DHT22;684;48.342;10.096;2023-02-26T02:29:45;1.10;27.00
1381;DHT22;684;48.342;10.096;2023-02-26T02:32:21;1.00;27.10
1381;DHT22;684;48.342;10.096;2023-02-26T02:34:53;1.00;27.00
1381;DHT22;684;48.342;10.096;2023-02-26T02:37:27;1.00;26.90
1381;DHT22;684;48.342;10.096;2023-02-26T02:39:58;1.00;27.10
1381;DHT22;684;48.342;10.096;2023-02-26T02:42:29;1.00;27.20
1381;DHT22;684;48.342;10.096;2023-02-26T02:45:00;1.00;27.20
1381;DHT22;684;48.342;10.096;2023-02-26T02:47:32;1.00;27.30
1381;DHT22;684;48.342;10.096;2023-02-26T02:50:04;1.10;27.40
1381;DHT22;684;48.342;10.096;2023-02-26T02:52:36;1.10;27.40
1381;DHT22;684;48.342;10.096;2023-02-26T02:55:08;1.10;27.50
1381;DHT22;684;48.342;10.096;2023-02-26T02:57:40;1.10;27.50
1381;DHT22;684;48.342;10.096;2023-02-26T03:00:11;1.10;27.50
1381;DHT22;684;48.342;10.096;2023-02-26T03:02:44;1.10;27.50
1381;DHT22;684;48.342;10.096;2023-02-26T03:05:13;1.20;27.50
1381;DHT22;684;48.342;10.096;2023-02-26T03:07:45;1.20;27.70
1381;DHT22;684;48.342;10.096;2023-02-26T03:10:12;1.20;27.70
1381;DHT22;684;48.342;10.096;2023-02-26T03:12:39;1.20;27.50
1381;DHT22;684;48.342;10.096;2023-02-26T03:15:07;1.20;27.50
1381;DHT22;684;48.342;10.096;2023-02-26T03:17:42;1.20;27.50
1381;DHT22;684;48.342;10.096;2023-02-26T03:20:16;1.20;27.30
1381;DHT22;684;48.342;10.096;2023-02-26T03:22:50;1.20;27.20
1381;DHT22;684;48.342;10.096;2023-02-26T03:25:23;1.10;27.10
1381;DHT22;684;48.342;10.096;2023-02-26T03:27:56;1.10;27.00
1381;DHT22;684;48.342;10.096;2023-02-26T03:30:29;1.10;26.90
1381;DHT22;684;48.342;10.096;2023-02-26T03:33:03;1.00;26.80
1381;DHT22;684;48.342;10.096;2023-02-26T03:35:36;1.10;26.80
1381;DHT22;684;48.342;10.096;2023-02-26T03:38:08;1.00;26.60
1381;DHT22;684;48.342;10.096;2023-02-26T03:40:40;1.00;26.50
1381;DHT22;684;48.342;10.096;2023-02-26T03:43:10;1.00;26.40
1381;DHT22;684;48.342;10.096;2023-02-26T03:45:40;1.10;26.20
1381;DHT22;684;48.342;10.096;2023-02-26T03:48:12;1.10;25.90
1381;DHT22;684;48.342;10.096;2023-02-26T03:50:44;1.00;25.90
1381;DHT22;684;48.342;10.096;2023-02-26T03:53:15;1.00;25.70
1381;DHT22;684;48.342;10.096;2023-02-26T03:55:46;1.00;25.60
1381;DHT22;684;48.342;10.096;2023-02-26T03:58:14;0.90;25.10
1381;DHT22;684;48.342;10.096;2023-02-26T04:00:43;0.90;25.20
1381;DHT22;684;48.342;10.096;2023-02-26T04:03:15;0.80;25.10
1381;DHT22;684;48.342;10.096;2023-02-26T04:05:46;0.80;25.10
1381;DHT22;684;48.342;10.096;2023-02-26T04:08:14;0.70;25.10
1381;DHT22;684;48.342;10.096;2023-02-26T04:10:43;0.70;24.90
1381;DHT22;684;48.342;10.096;2023-02-26T04:13:10;0.60;24.60
1381;DHT22;684;48.342;10.096;2023-02-26T04:15:37;0.60;24.60
1381;DHT22;684;48.342;10.096;2023-02-26T04:18:04;0.50;24.60
1381;DHT22;684;48.342;10.096;2023-02-26T04:20:32;0.50;24.60
1381;DHT22;684;48.342;10.096;2023-02-26T04:22:59;0.40;24.70
1381;DHT22;684;48.342;10.096;2023-02-26T04:25:25;0.30;24.80
1381;DHT22;684;48.342;10.096;2023-02-26T04:27:52;0.30;24.90
1381;DHT22;684;48.342;10.096;2023-02-26T04:30:19;0.20;24.90
1381;DHT22;684;48.342;10.096;2023-02-26T04:32:45;0.20;25.10
1381;DHT22;684;48.342;10.096;2023-02-26T04:35:12;0.10;25.20
1381;DHT22;684;48.342;10.096;2023-02-26T04:37:40;0.10;25.30
1381;DHT22;684;48.342;10.096;2023-02-26T04:40:08;0.00;25.40
1381;DHT22;684;48.342;10.096;2023-02-26T04:42:35;0.00;25.50
1381;DHT22;684;48.342;10.096;2023-02-26T04:45:02;0.00;25.50
1381;DHT22;684;48.342;10.096;2023-02-26T04:47:29;-0.10;26.30
1381;DHT22;684;48.342;10.096;2023-02-26T04:49:56;-0.20;25.70
1381;DHT22;684;48.342;10.096;2023-02-26T04:52:23;-0.20;25.70
1381;DHT22;684;48.342;10.096;2023-02-26T04:54:51;-0.30;26.00
1381;DHT22;684;48.342;10.096;2023-02-26T04:57:17;-0.30;26.00
1381;DHT22;684;48.342;10.096;2023-02-26T04:59:44;-0.30;26.10
1381;DHT22;684;48.342;10.096;2023-02-26T05:02:11;-0.40;26.30
1381;DHT22;684;48.342;10.096;2023-02-26T05:04:38;-0.40;26.30
1381;DHT22;684;48.342;10.096;2023-02-26T05:07:05;-0.40;26.30
1381;DHT22;684;48.342;10.096;2023-02-26T05:09:31;-0.40;26.40
1381;DHT22;684;48.342;10.096;2023-02-26T05:11:59;-0.50;26.40
1381;DHT22;684;48.342;10.096;2023-02-26T05:14:26;-0.50;26.60
1381;DHT22;684;48.342;10.096;2023-02-26T05:16:53;-0.50;26.60
1381;DHT22;684;48.342;10.096;2023-02-26T05:19:20;-0.50;26.70
1381;DHT22;684;48.342;10.096;2023-02-26T05:21:46;-0.60;26.60
1381;DHT22;684;48.342;10.096;2023-02-26T05:24:13;-0.60;26.70
1381;DHT22;684;48.342;10.096;2023-02-26T05:26:40;-0.60;26.70
1381;DHT22;684;48.342;10.096;2023-02-26T05:29:08;-0.70;26.60
1381;DHT22;684;48.342;10.096;2023-02-26T05:31:35;-0.70;26.70
1381;DHT22;684;48.342;10.096;2023-02-26T05:34:02;-0.70;26.70
1381;DHT22;684;48.342;10.096;2023-02-26T05:36:28;-0.70;26.80
1381;DHT22;684;48.342;10.096;2023-02-26T05:38:55;-0.70;26.80
1381;DHT22;684;48.342;10.096;2023-02-26T05:41:22;-0.80;26.70
1381;DHT22;684;48.342;10.096;2023-02-26T05:43:49;-0.80;26.60
1381;DHT22;684;48.342;10.096;2023-02-26T05:46:17;-0.80;26.70
1381;DHT22;684;48.342;10.096;2023-02-26T05:48:44;-0.80;26.80
1381;DHT22;684;48.342;10.096;2023-02-26T05:51:10;-0.40;26.80
1381;DHT22;684;48.342;10.096;2023-02-26T05:53:37;-0.80;26.60
1381;DHT22;684;48.342;10.096;2023-02-26T05:56:04;-0.90;26.70
1381;DHT22;684;48.342;10.096;2023-02-26T05:58:31;-0.90;26.90
1381;DHT22;684;48.342;10.096;2023-02-26T06:00:58;-0.90;26.90
1381;DHT22;684;48.342;10.096;2023-02-26T06:03:27;-0.90;26.90
1381;DHT22;684;48.342;10.096;2023-02-26T06:05:53;-0.90;27.00
1381;DHT22;684;48.342;10.096;2023-02-26T06:08:20;-0.90;27.10
1381;DHT22;684;48.342;10.096;2023-02-26T06:10:49;-0.90;27.10
1381;DHT22;684;48.342;10.096;2023-02-26T06:13:16;-0.90;27.10
1381;DHT22;684;48.342;10.096;2023-02-26T06:15:43;-1.00;27.20
1381;DHT22;684;48.342;10.096;2023-02-26T06:18:10;-1.00;27.20
1381;DHT22;684;48.342;10.096;2023-02-26T06:20:38;-0.90;27.50
1381;DHT22;684;48.342;10.096;2023-02-26T06:23:04;-0.80;27.60
1381;DHT22;684;48.342;10.096;2023-02-26T06:25:31;-0.60;27.70
1381;DHT22;684;48.342;10.096;2023-02-26T06:27:58;-0.50;27.40
1381;DHT22;684;48.342;10.096;2023-02-26T06:30:24;-0.20;26.80
1381;DHT22;684;48.342;10.096;2023-02-26T06:32:51;0.00;27.00
1381;DHT22;684;48.342;10.096;2023-02-26T06:35:18;0.20;26.10
1381;DHT22;684;48.342;10.096;2023-02-26T06:37:46;0.40;25.20
1381;DHT22;684;48.342;10.096;2023-02-26T06:40:13;0.60;24.30
1381;DHT22;684;48.342;10.096;2023-02-26T06:42:40;0.80;23.50
1381;DHT22;684;48.342;10.096;2023-02-26T06:45:07;1.10;22.70
1381;DHT22;684;48.342;10.096;2023-02-26T06:47:34;1.30;22.10
1381;DHT22;684;48.342;10.096;2023-02-26T06:50:01;1.50;21.30
1381;DHT22;684;48.342;10.096;2023-02-26T06:52:28;1.80;20.40
1381;DHT22;684;48.342;10.096;2023-02-26T06:54:56;2.20;19.50
1381;DHT22;684;48.342;10.096;2023-02-26T06:57:23;2.90;18.50
1381;DHT22;684;48.342;10.096;2023-02-26T06:59:50;3.50;17.20
1381;DHT22;684;48.342;10.096;2023-02-26T07:02:19;4.30;16.10
1381;DHT22;684;48.342;10.096;2023-02-26T07:04:46;4.70;15.20
1381;DHT22;684;48.342;10.096;2023-02-26T07:07:13;4.40;13.80
1381;DHT22;684;48.342;10.096;2023-02-26T07:09:41;4.30;14.40
1381;DHT22;684;48.342;10.096;2023-02-26T07:12:09;4.20;14.40
1381;DHT22;684;48.342;10.096;2023-02-26T07:14:36;4.00;14.10
1381;DHT22;684;48.342;10.096;2023-02-26T07:17:03;3.70;14.40
1381;DHT22;684;48.342;10.096;2023-02-26T07:19:29;3.50;14.70
1381;DHT22;684;48.342;10.096;2023-02-26T07:21:56;3.40;15.10
1381;DHT22;684;48.342;10.096;2023-02-26T07:24:23;3.40;15.40
1381;DHT22;684;48.342;10.096;2023-02-26T07:26:50;3.60;16.40
1381;DHT22;684;48.342;10.096;2023-02-26T07:29:18;4.10;16.70
1381;DHT22;684;48.342;10.096;2023-02-26T07:31:44;4.70;15.90
1381;DHT22;684;48.342;10.096;2023-02-26T07:34:11;5.30;15.40
1381;DHT22;684;48.342;10.096;2023-02-26T07:36:38;5.80;13.60
1381;DHT22;684;48.342;10.096;2023-02-26T07:39:04;6.10;12.30
1381;DHT22;684;48.342;10.096;2023-02-26T07:41:31;6.20;11.70
1381;DHT22;684;48.342;10.096;2023-02-26T07:43:58;6.50;10.80
1381;DHT22;684;48.342;10.096;2023-02-26T07:46:26;7.00;10.40
1381;DHT22;684;48.342;10.096;2023-02-26T07:48:52;7.90;8.80
1381;DHT22;684;48.342;10.096;2023-02-26T07:51:19;8.70;7.10
1381;DHT22;684;48.342;10.096;2023-02-26T07:53:46;9.20;6.90
1381;DHT22;684;48.342;10.096;2023-02-26T07:56:13;9.50;5.80
1381;DHT22;684;48.342;10.096;2023-02-26T07:58:39;9.80;5.30
1381;DHT22;684;48.342;10.096;2023-02-26T08:01:06;10.10;4.70
1381;DHT22;684;48.342;10.096;2023-02-26T08:03:34;10.20;3.30
1381;DHT22;684;48.342;10.096;2023-02-26T08:06:01;10.90;3.30
1381;DHT22;684;48.342;10.096;2023-02-26T08:08:28;11.90;2.30
1381;DHT22;684;48.342;10.096;2023-02-26T08:10:54;13.20;1.00
1381;DHT22;684;48.342;10.096;2023-02-26T08:13:21;13.50;1.00
1381;DHT22;684;48.342;10.096;2023-02-26T08:15:48;13.50;1.00
1381;DHT22;684;48.342;10.096;2023-02-26T08:18:14;14.20;1.00
1381;DHT22;684;48.342;10.096;2023-02-26T08:20:42;15.80;1.00
1381;DHT22;684;48.342;10.096;2023-02-26T08:23:09;17.60;1.00
1381;DHT22;684;48.342;10.096;2023-02-26T08:25:36;18.90;1.00
1381;DHT22;684;48.342;10.096;2023-02-26T08:28:03;20.00;1.00
1381;DHT22;684;48.342;10.096;2023-02-26T08:30:30;20.80;1.00
1381;DHT22;684;48.342;10.096;2023-02-26T08:32:56;20.00;1.00
1381;DHT22;684;48.342;10.096;2023-02-26T08:35:23;19.30;1.00
1381;DHT22;684;48.342;10.096;2023-02-26T08:37:51;17.90;1.00
1381;DHT22;684;48.342;10.096;2023-02-26T08:40:19;16.30;1.00
1381;DHT22;684;48.342;10.096;2023-02-26T08:42:46;14.70;1.00
1381;DHT22;684;48.342;10.096;2023-02-26T08:45:13;13.60;1.00
1381;DHT22;684;48.342;10.096;2023-02-26T08:47:39;12.70;1.00
1381;DHT22;684;48.342;10.096;2023-02-26T08:50:09;11.90;1.00
1381;DHT22;684;48.342;10.096;2023-02-26T08:52:36;11.20;1.00
1381;DHT22;684;48.342;10.096;2023-02-26T08:55:06;11.40;1.00
1381;DHT22;684;48.342;10.096;2023-02-26T08:57:33;13.10;1.00
1381;DHT22;684;48.342;10.096;2023-02-26T09:00:00;12.90;1.00
1381;DHT22;684;48.342;10.096;2023-02-26T09:02:29;12.60;1.00
1381;DHT22;684;48.342;10.096;2023-02-26T09:04:56;12.50;1.00
1381;DHT22;684;48.342;10.096;2023-02-26T09:07:23;13.00;1.00
1381;DHT22;684;48.342;10.096;2023-02-26T09:09:49;14.90;1.00
1381;DHT22;684;48.342;10.096;2023-02-26T09:12:17;17.30;1.00
1381;DHT22;684;48.342;10.096;2023-02-26T09:14:44;17.80;1.00
1381;DHT22;684;48.342;10.096;2023-02-26T09:17:11;19.30;1.00
1381;DHT22;684;48.342;10.096;2023-02-26T09:19:38;19.10;1.00
1381;DHT22;684;48.342;10.096;2023-02-26T09:22:04;19.50;1.00
1381;DHT22;684;48.342;10.096;2023-02-26T09:24:31;19.20;1.00
1381;DHT22;684;48.342;10.096;2023-02-26T09:26:58;18.20;1.00
1381;DHT22;684;48.342;10.096;2023-02-26T09:29:26;17.00;1.00
1381;DHT22;684;48.342;10.096;2023-02-26T09:31:53;16.60;1.00
1381;DHT22;684;48.342;10.096;2023-02-26T09:34:20;15.40;1.00
1381;DHT22;684;48.342;10.096;2023-02-26T09:36:47;13.80;1.00
1381;DHT22;684;48.342;10.096;2023-02-26T09:39:13;12.60;1.00
1381;DHT22;684;48.342;10.096;2023-02-26T09:41:42;11.60;1.00
1381;DHT22;684;48.342;10.096;2023-02-26T09:44:16;10.70;1.00
1381;DHT22;684;48.342;10.096;2023-02-26T09:46:53;9.80;1.00
1381;DHT22;684;48.342;10.096;2023-02-26T09:49:27;9.00;2.10
1381;DHT22;684;48.342;10.096;2023-02-26T09:51:59;8.40;3.30
1381;DHT22;684;48.342;10.096;2023-02-26T09:54:30;7.90;4.60
1381;DHT22;684;48.342;10.096;2023-02-26T09:56:59;7.50;5.50
1381;DHT22;684;48.342;10.096;2023-02-26T09:59:27;7.40;6.20
1381;DHT22;684;48.342;10.096;2023-02-26T10:02:01;7.40;7.30
1381;DHT22;684;48.342;10.096;2023-02-26T10:04:49;7.50;6.90
1381;DHT22;684;48.342;10.096;2023-02-26T10:07:25;7.90;7.70
1381;DHT22;684;48.342;10.096;2023-02-26T10:10:02;8.80;6.60
1381;DHT22;684;48.342;10.096;2023-02-26T10:12:33;9.60;5.30
1381;DHT22;684;48.342;10.096;2023-02-26T10:15:05;9.50;4.70
1381;DHT22;684;48.342;10.096;2023-02-26T10:17:44;9.00;5.00
1381;DHT22;684;48.342;10.096;2023-02-26T10:20:18;8.70;5.80
1381;DHT22;684;48.342;10.096;2023-02-26T10:22:54;8.80;6.40
1381;DHT22;684;48.342;10.096;2023-02-26T10:25:27;8.60;7.10
1381;DHT22;684;48.342;10.096;2023-02-26T10:27:58;8.70;8.10
1381;DHT22;684;48.342;10.096;2023-02-26T10:30:32;8.70;8.20
1381;DHT22;684;48.342;10.096;2023-02-26T10:33:10;8.50;8.20
1381;DHT22;684;48.342;10.096;2023-02-26T10:35:52;8.20;8.80
1381;DHT22;684;48.342;10.096;2023-02-26T10:38:22;7.90;9.20
1381;DHT22;684;48.342;10.096;2023-02-26T10:41:00;7.50;9.90
1381;DHT22;684;48.342;10.096;2023-02-26T10:43:31;7.10;10.50
1381;DHT22;684;48.342;10.096;2023-02-26T10:46:16;6.70;11.80
1381;DHT22;684;48.342;10.096;2023-02-26T10:48:58;6.40;12.80
1381;DHT22;684;48.342;10.096;2023-02-26T10:51:32;6.00;13.40
1381;DHT22;684;48.342;10.096;2023-02-26T10:54:03;5.70;13.70
1381;DHT22;684;48.342;10.096;2023-02-26T10:56:32;5.40;14.00
1381;DHT22;684;48.342;10.096;2023-02-26T10:58:59;5.20;14.50
1381;DHT22;684;48.342;10.096;2023-02-26T11:01:28;4.90;15.10
1381;DHT22;684;48.342;10.096;2023-02-26T11:03:59;4.70;15.50
1381;DHT22;684;48.342;10.096;2023-02-26T11:06:29;4.40;15.70
1381;DHT22;684;48.342;10.096;2023-02-26T11:08:59;4.20;16.30
1381;DHT22;684;48.342;10.096;2023-02-26T11:11:42;4.00;16.60
1381;DHT22;684;48.342;10.096;2023-02-26T11:14:11;3.80;17.20
1381;DHT22;684;48.342;10.096;2023-02-26T11:16:46;3.70;17.80
1381;DHT22;684;48.342;10.096;2023-02-26T11:19:15;3.60;18.00
1381;DHT22;684;48.342;10.096;2023-02-26T11:21:45;3.40;18.30
1381;DHT22;684;48.342;10.096;2023-02-26T11:24:16;3.30;19.00
1381;DHT22;684;48.342;10.096;2023-02-26T11:26:46;3.20;19.80
1381;DHT22;684;48.342;10.096;2023-02-26T11:29:16;3.10;19.90
1381;DHT22;684;48.342;10.096;2023-02-26T11:31:47;3.10;20.40
1381;DHT22;684;48.342;10.096;2023-02-26T11:34:21;3.10;20.70
1381;DHT22;684;48.342;10.096;2023-02-26T11:36:48;3.10;20.70
1381;DHT22;684;48.342;10.096;2023-02-26T11:39:16;3.20;20.50
1381;DHT22;684;48.342;10.096;2023-02-26T11:41:45;3.30;20.10
1381;DHT22;684;48.342;10.096;2023-02-26T11:44:14;3.40;19.90
1381;DHT22;684;48.342;10.096;2023-02-26T11:46:44;3.60;20.00
1381;DHT22;684;48.342;10.096;2023-02-26T11:49:13;3.70;19.30
1381;DHT22;684;48.342;10.096;2023-02-26T11:51:45;3.80;19.20
1381;DHT22;684;48.342;10.096;2023-02-26T11:54:20;3.90;19.10
1381;DHT22;684;48.342;10.096;2023-02-26T11:56:47;4.00;19.10
1381;DHT22;684;48.342;10.096;2023-02-26T11:59:17;4.00;18.60
1381;DHT22;684;48.342;10.096;2023-02-26T12:01:44;3.90;18.90
1381;DHT22;684;48.342;10.096;2023-02-26T12:04:16;4.00;18.70
1381;DHT22;684;48.342;10.096;2023-02-26T12:06:45;4.10;18.70
1381;DHT22;684;48.342;10.096;2023-02-26T12:09:13;4.20;18.40
1381;DHT22;684;48.342;10.096;2023-02-26T12:11:55;4.30;18.20
1381;DHT22;684;48.342;10.096;2023-02-26T12:14:42;4.20;18.00
1381;DHT22;684;48.342;10.096;2023-02-26T12:17:30;4.30;18.10
1381;DHT22;684;48.342;10.096;2023-02-26T12:20:07;4.30;17.40
1381;DHT22;684;48.342;10.096;2023-02-26T12:22:48;4.10;17.30
1381;DHT22;684;48.342;10.096;2023-02-26T12:25:39;4.00;17.60
1381;DHT22;684;48.342;10.096;2023-02-26T12:28:30;4.10;17.90
1381;DHT22;684;48.342;10.096;2023-02-26T12:31:28;4.00;17.50
1381;DHT22;684;48.342;10.096;2023-02-26T12:34:13;3.80;17.60
1381;DHT22;684;48.342;10.096;2023-02-26T12:36:57;3.50;18.20
1381;DHT22;684;48.342;10.096;2023-02-26T12:39:39;3.30;18.70
1381;DHT22;684;48.342;10.096;2023-02-26T12:42:19;3.30;19.00
1381;DHT22;684;48.342;10.096;2023-02-26T12:45:12;3.30;18.50
1381;DHT22;684;48.342;10.096;2023-02-26T12:47:51;3.30;19.10
1381;DHT22;684;48.342;10.096;2023-02-26T12:50:33;3.50;18.30
1381;DHT22;684;48.342;10.096;2023-02-26T12:53:21;3.70;18.30
1381;DHT22;684;48.342;10.096;2023-02-26T12:56:00;4.00;18.20
1381;DHT22;684;48.342;10.096;2023-02-26T12:58:47;4.20;17.50
1381;DHT22;684;48.342;10.096;2023-02-26T13:01:38;4.40;17.00
1381;DHT22;684;48.342;10.096;2023-02-26T13:07:04;4.40;16.70
1381;DHT22;684;48.342;10.096;2023-02-26T13:09:41;4.30;17.10
1381;DHT22;684;48.342;10.096;2023-02-26T13:12:23;4.20;17.20
1381;DHT22;684;48.342;10.096;2023-02-26T13:14:58;4.20;17.30
1381;DHT22;684;48.342;10.096;2023-02-26T13:17:32;4.10;17.70
1381;DHT22;684;48.342;10.096;2023-02-26T13:20:09;4.10;17.40
1381;DHT22;684;48.342;10.096;2023-02-26T13:22:39;4.00;17.20
1381;DHT22;684;48.342;10.096;2023-02-26T13:25:16;3.80;17.40
1381;DHT22;684;48.342;10.096;2023-02-26T13:27:46;3.70;18.10
1381;DHT22;684;48.342;10.096;2023-02-26T13:30:22;3.60;17.70
1381;DHT22;684;48.342;10.096;2023-02-26T13:32:53;3.50;18.80
1381;DHT22;684;48.342;10.096;2023-02-26T13:35:23;3.40;19.40
1381;DHT22;684;48.342;10.096;2023-02-26T13:37:53;3.30;19.50
1381;DHT22;684;48.342;10.096;2023-02-26T13:40:39;3.30;19.60
1381;DHT22;684;48.342;10.096;2023-02-26T13:43:20;3.30;19.50
1381;DHT22;684;48.342;10.096;2023-02-26T13:45:55;3.50;19.30
1381;DHT22;684;48.342;10.096;2023-02-26T13:48:34;3.60;19.30
1381;DHT22;684;48.342;10.096;2023-02-26T13:51:07;3.80;19.70
1381;DHT22;684;48.342;10.096;2023-02-26T13:54:02;3.90;20.10
1381;DHT22;684;48.342;10.096;2023-02-26T13:56:53;3.90;20.70
1381;DHT22;684;48.342;10.096;2023-02-26T13:59:30;3.70;22.80
1381;DHT22;684;48.342;10.096;2023-02-26T14:02:01;3.50;23.20
1381;DHT22;684;48.342;10.096;2023-02-26T14:04:29;3.50;23.20
1381;DHT22;684;48.342;10.096;2023-02-26T14:06:58;3.30;23.10
1381;DHT22;684;48.342;10.096;2023-02-26T14:09:45;3.20;22.80
1381;DHT22;684;48.342;10.096;2023-02-26T14:12:29;3.10;22.10
1381;DHT22;684;48.342;10.096;2023-02-26T14:15:30;3.00;20.40
1381;DHT22;684;48.342;10.096;2023-02-26T14:18:10;2.80;19.60
1381;DHT22;684;48.342;10.096;2023-02-26T14:20:44;2.60;19.30
1381;DHT22;684;48.342;10.096;2023-02-26T14:23:34;2.50;19.70
1381;DHT22;684;48.342;10.096;2023-02-26T14:26:05;2.50;19.70
1381;DHT22;684;48.342;10.096;2023-02-26T14:28:54;2.40;19.80
1381;DHT22;684;48.342;10.096;2023-02-26T14:31:24;2.40;20.30
1381;DHT22;684;48.342;10.096;2023-02-26T14:34:13;2.40;20.00
1381;DHT22;684;48.342;10.096;2023-02-26T14:36:44;2.40;20.30
1381;DHT22;684;48.342;10.096;2023-02-26T14:39:22;2.40;20.40
1381;DHT22;684;48.342;10.096;2023-02-26T14:41:54;2.30;20.40
1381;DHT22;684;48.342;10.096;2023-02-26T14:44:25;2.50;21.00
1381;DHT22;684;48.342;10.096;2023-02-26T14:46:54;2.80;21.30
1381;DHT22;684;48.342;10.096;2023-02-26T14:49:24;2.80;21.50
1381;DHT22;684;48.342;10.096;2023-02-26T14:52:13;2.70;22.90
1381;DHT22;684;48.342;10.096;2023-02-26T14:55:10;2.60;25.60
1381;DHT22;684;48.342;10.096;2023-02-26T14:57:46;2.40;28.70
1381;DHT22;684;48.342;10.096;2023-02-26T15:00:25;2.10;29.40
1381;DHT22;684;48.342;10.096;2023-02-26T15:03:27;2.00;29.80
1381;DHT22;684;48.342;10.096;2023-02-26T15:06:12;1.90;29.60
1381;DHT22;684;48.342;10.096;2023-02-26T15:08:50;1.90;29.00
1381;DHT22;684;48.342;10.096;2023-02-26T15:11:48;1.90;29.40
1381;DHT22;684;48.342;10.096;2023-02-26T15:14:52;1.90;27.50
1381;DHT22;684;48.342;10.096;2023-02-26T15:17:32;1.90;26.80
1381;DHT22;684;48.342;10.096;2023-02-26T15:20:09;1.90;26.10
1381;DHT22;684;48.342;10.096;2023-02-26T15:22:50;1.90;26.10
1381;DHT22;684;48.342;10.096;2023-02-26T15:25:26;2.00;24.60
1381;DHT22;684;48.342;10.096;2023-02-26T15:27:54;2.20;23.70
1381;DHT22;684;48.342;10.096;2023-02-26T15:30:22;2.50;23.10
1381;DHT22;684;48.342;10.096;2023-02-26T15:32:55;2.60;24.10
1381;DHT22;684;48.342;10.096;2023-02-26T15:35:25;2.50;24.20
1381;DHT22;684;48.342;10.096;2023-02-26T15:37:54;2.50;24.10
1381;DHT22;684;48.342;10.096;2023-02-26T15:40:22;2.50;24.10
1381;DHT22;684;48.342;10.096;2023-02-26T15:42:51;2.50;24.30
1381;DHT22;684;48.342;10.096;2023-02-26T15:45:22;2.50;24.30
1381;DHT22;684;48.342;10.096;2023-02-26T15:47:55;2.50;23.10
1381;DHT22;684;48.342;10.096;2023-02-26T15:50:27;2.40;20.60
1381;DHT22;684;48.342;10.096;2023-02-26T15:52:57;2.30;19.30
1381;DHT22;684;48.342;10.096;2023-02-26T15:55:25;2.30;19.40
1381;DHT22;684;48.342;10.096;2023-02-26T15:57:52;2.30;19.20
1381;DHT22;684;48.342;10.096;2023-02-26T16:00:21;2.20;19.30
1381;DHT22;684;48.342;10.096;2023-02-26T16:02:52;2.20;18.80
1381;DHT22;684;48.342;10.096;2023-02-26T16:05:21;2.10;18.70
1381;DHT22;684;48.342;10.096;2023-02-26T16:07:49;2.00;19.00
1381;DHT22;684;48.342;10.096;2023-02-26T16:10:26;2.00;18.70
1381;DHT22;684;48.342;10.096;2023-02-26T16:12:53;1.90;19.00
1381;DHT22;684;48.342;10.096;2023-02-26T16:15:27;2.00;21.30
1381;DHT22;684;48.342;10.096;2023-02-26T16:17:55;2.00;22.30
1381;DHT22;684;48.342;10.096;2023-02-26T16:20:25;2.50;22.60
1381;DHT22;684;48.342;10.096;2023-02-26T16:22:57;2.10;22.20
1381;DHT22;684;48.342;10.096;2023-02-26T16:25:27;2.10;21.90
1381;DHT22;684;48.342;10.096;2023-02-26T16:27:57;2.10;21.70
1381;DHT22;684;48.342;10.096;2023-02-26T16:30:34;2.20;21.70
1381;DHT22;684;48.342;10.096;2023-02-26T16:33:03;2.20;21.80
1381;DHT22;684;48.342;10.096;2023-02-26T16:35:33;2.20;22.10
1381;DHT22;684;48.342;10.096;2023-02-26T16:38:14;2.20;22.20
1381;DHT22;684;48.342;10.096;2023-02-26T16:40:43;2.20;22.30
1381;DHT22;684;48.342;10.096;2023-02-26T16:43:40;2.20;22.70
1381;DHT22;684;48.342;10.096;2023-02-26T16:46:10;2.10;24.60
1381;DHT22;684;48.342;10.096;2023-02-26T16:48:40;2.10;26.60